Time;durP1;ratioP1;P1;durP2;ratioP2;P2;SDS_P1;SDS_P2;PMS_P1;PMS_P2;Temp;Humidity;BMP_temperature;BMP_pressure;BME280_temperature;BME280_humidity;BME280_pressure;Samples;Min_cycle;Max_cycle;Signal;HPM_P1;HPM_P2
2023/04/20 00:01:11;;;;;;;5.38;3.42;;;9.80;86.00;;;;;;6221376;23;20206;-76
2023/04/20 00:03:38;;;;;;;5.30;4.00;;;9.70;86.50;;;;;;6216046;23;20222;-75
2023/04/20 00:06:05;;;;;;;7.80;3.90;;;9.70;87.10;;;;;;6216026;23;20160;-73
2023/04/20 00:08:31;;;;;;;3.92;3.28;;;9.60;87.70;;;;;;6215854;23;20164;-75
2023/04/20 00:10:58;;;;;;;5.13;3.42;;;9.60;88.90;;;;;;6215274;23;20206;-74
2023/04/20 00:13:26;;;;;;;6.65;4.20;;;9.50;89.50;;;;;;6216020;23;20244;-75
2023/04/20 00:15:54;;;;;;;3.85;3.17;;;9.50;91.30;;;;;;6215690;23;20736;-74
2023/04/20 00:18:21;;;;;;;6.55;3.72;;;9.30;92.50;;;;;;6215726;23;20203;-75
2023/04/20 00:20:48;;;;;;;5.43;3.10;;;9.20;93.40;;;;;;6215608;23;20549;-75
2023/04/20 00:23:15;;;;;;;6.68;3.25;;;9.00;94.20;;;;;;6215853;23;20187;-76
2023/04/20 00:25:42;;;;;;;6.53;4.07;;;8.90;95.00;;;;;;6216174;23;20199;-75
2023/04/20 00:28:08;;;;;;;6.50;3.30;;;8.80;95.60;;;;;;6216133;23;20166;-73
2023/04/20 00:30:35;;;;;;;5.40;3.20;;;8.80;96.20;;;;;;6215499;23;20164;-75
2023/04/20 00:33:04;;;;;;;3.88;3.42;;;8.80;96.60;;;;;;6216093;23;20275;-74
2023/04/20 00:35:31;;;;;;;6.57;3.92;;;8.80;97.20;;;;;;6215148;23;20250;-76
2023/04/20 00:37:57;;;;;;;3.22;2.65;;;8.70;98.00;;;;;;6216503;23;20243;-73
2023/04/20 00:40:24;;;;;;;4.38;3.03;;;8.70;98.80;;;;;;6215326;23;20167;-75
2023/04/20 00:42:51;;;;;;;4.88;4.05;;;8.70;99.90;;;;;;6218531;23;20170;-75
2023/04/20 00:45:20;;;;;;;8.20;4.05;;;8.50;99.90;;;;;;6215366;23;20243;-77
2023/04/20 00:47:47;;;;;;;5.60;4.10;;;8.30;99.90;;;;;;6215806;23;20250;-75
2023/04/20 00:50:16;;;;;;;4.30;3.08;;;8.30;99.90;;;;;;6215566;23;20156;-76
2023/04/20 00:52:44;;;;;;;6.43;3.42;;;8.20;99.90;;;;;;6215673;23;20191;-75
2023/04/20 00:55:12;;;;;;;5.35;3.70;;;8.10;99.90;;;;;;6215874;23;20679;-74
2023/04/20 00:57:40;;;;;;;5.35;3.55;;;8.10;99.90;;;;;;6216403;23;20169;-74
2023/04/20 01:00:09;;;;;;;4.32;3.70;;;8.10;99.90;;;;;;6215472;23;20609;-75
2023/04/20 01:02:36;;;;;;;7.82;4.32;;;8.10;99.90;;;;;;6218394;23;20173;-74
2023/04/20 01:05:03;;;;;;;4.88;3.25;;;8.10;99.90;;;;;;6220353;23;20203;-76
2023/04/20 01:07:32;;;;;;;9.90;3.83;;;8.20;99.90;;;;;;6222848;23;20168;-76
2023/04/20 01:09:59;;;;;;;6.65;3.90;;;8.20;99.90;;;;;;6224938;23;20243;-76
2023/04/20 01:12:27;;;;;;;6.30;3.83;;;8.20;99.90;;;;;;6228375;23;20194;-73
2023/04/20 01:14:54;;;;;;;6.53;3.80;;;8.20;99.90;;;;;;6222935;23;20207;-76
2023/04/20 01:17:23;;;;;;;4.28;3.45;;;8.20;99.90;;;;;;6216045;23;20234;-76
2023/04/20 01:19:50;;;;;;;5.13;3.20;;;8.20;99.90;;;;;;6215318;23;20164;-75
2023/04/20 01:22:18;;;;;;;3.38;2.65;;;8.30;99.90;;;;;;6215123;23;20168;-75
2023/04/20 01:24:45;;;;;;;8.45;4.43;;;8.30;99.90;;;;;;6215502;23;20523;-75
2023/04/20 01:27:15;;;;;;;6.60;4.30;;;8.40;99.90;;;;;;6215571;23;20239;-75
2023/04/20 01:29:42;;;;;;;5.45;3.15;;;8.30;99.90;;;;;;6214931;23;20199;-75
2023/04/20 01:32:09;;;;;;;6.55;3.47;;;8.40;99.90;;;;;;6215363;23;20207;-73
2023/04/20 01:34:36;;;;;;;5.30;3.65;;;8.40;99.90;;;;;;6214909;23;20200;-76
2023/04/20 01:37:06;;;;;;;6.53;3.38;;;8.50;99.90;;;;;;6215597;23;20180;-74
2023/04/20 01:39:35;;;;;;;4.00;3.00;;;8.50;99.90;;;;;;6214511;23;20168;-75
2023/04/20 01:42:03;;;;;;;6.38;3.85;;;8.50;99.90;;;;;;6215253;23;20243;-73
2023/04/20 01:44:30;;;;;;;4.93;3.30;;;8.60;99.90;;;;;;6215620;23;20200;-75
2023/04/20 01:46:57;;;;;;;5.53;3.22;;;8.60;99.90;;;;;;6215773;23;20160;-76
2023/04/20 01:49:24;;;;;;;4.75;3.53;;;8.60;99.90;;;;;;6215481;23;20526;-75
2023/04/20 01:51:50;;;;;;;5.50;2.95;;;8.60;99.90;;;;;;6214214;23;20183;-75
2023/04/20 01:54:17;;;;;;;5.35;3.15;;;8.50;99.90;;;;;;6215406;23;20274;-75
2023/04/20 01:56:46;;;;;;;6.65;3.08;;;8.70;99.90;;;;;;6214820;23;20583;-75
2023/04/20 01:59:12;;;;;;;4.22;3.03;;;8.80;99.90;;;;;;6217238;23;20702;-75
2023/04/20 02:01:40;;;;;;;5.13;2.85;;;8.80;99.90;;;;;;6216711;23;20254;-73
2023/04/20 02:04:07;;;;;;;3.30;2.70;;;8.80;99.60;;;;;;6217342;23;20231;-75
2023/04/20 02:06:35;;;;;;;5.90;2.83;;;8.80;99.50;;;;;;6217499;23;20164;-74
2023/04/20 02:09:02;;;;;;;6.60;3.05;;;8.80;99.00;;;;;;6217511;23;20239;-74
2023/04/20 02:11:29;;;;;;;5.03;2.63;;;8.80;98.80;;;;;;6215963;23;20679;-74
2023/04/20 02:13:57;;;;;;;5.90;3.15;;;8.90;98.90;;;;;;6217390;23;20516;-74
2023/04/20 02:16:24;;;;;;;11.80;2.90;;;8.90;98.90;;;;;;6216466;23;20259;-74
2023/04/20 02:18:51;;;;;;;6.32;3.35;;;8.90;98.60;;;;;;6218333;23;20199;-73
2023/04/20 02:21:19;;;;;;;7.30;3.00;;;8.90;98.60;;;;;;6217157;23;20538;-74
2023/04/20 02:23:46;;;;;;;7.47;3.10;;;8.90;98.80;;;;;;6217077;23;20170;-73
2023/04/20 02:26:12;;;;;;;5.50;3.05;;;8.90;98.60;;;;;;6217036;23;20464;-75
2023/04/20 02:29:02;;;;;;;5.93;3.10;;;9.00;98.40;;;;;;6217170;23;20595;-76
2023/04/20 02:31:30;;;;;;;3.80;2.28;;;9.00;98.70;;;;;;6218841;23;20184;-74
2023/04/20 02:33:57;;;;;;;5.80;3.50;;;9.00;98.70;;;;;;6217345;23;20286;-73
2023/04/20 02:36:24;;;;;;;5.75;3.13;;;9.00;98.80;;;;;;6217167;23;20238;-75
2023/04/20 02:38:51;;;;;;;8.73;3.60;;;8.90;98.80;;;;;;6217206;23;20547;-75
2023/04/20 02:41:19;;;;;;;6.20;2.97;;;8.70;99.30;;;;;;6216547;23;20238;-76
2023/04/20 02:43:47;;;;;;;5.85;2.65;;;8.70;99.80;;;;;;6216610;23;20585;-74
2023/04/20 02:46:14;;;;;;;4.68;2.50;;;8.60;99.90;;;;;;6216849;23;20180;-76
2023/04/20 02:48:42;;;;;;;7.05;3.63;;;8.50;99.90;;;;;;6216598;23;20183;-74
2023/04/20 02:51:09;;;;;;;6.30;3.05;;;8.50;99.90;;;;;;6215953;23;20294;-75
2023/04/20 02:53:37;;;;;;;5.55;3.70;;;8.40;99.90;;;;;;6216907;23;20163;-75
2023/04/20 02:56:05;;;;;;;8.18;3.40;;;8.40;99.90;;;;;;6216862;23;20274;-76
2023/04/20 02:58:32;;;;;;;4.47;2.95;;;8.40;99.90;;;;;;6217679;23;20595;-74
2023/04/20 03:01:00;;;;;;;4.95;3.33;;;8.30;99.90;;;;;;6216205;23;20171;-76
2023/04/20 03:03:27;;;;;;;7.07;3.58;;;8.40;99.90;;;;;;6215661;23;20160;-75
2023/04/20 03:05:55;;;;;;;13.43;4.25;;;8.40;99.90;;;;;;6217158;23;20206;-74
2023/04/20 03:08:22;;;;;;;6.53;3.17;;;8.40;99.90;;;;;;6216446;23;20164;-74
2023/04/20 03:10:49;;;;;;;5.30;2.85;;;8.30;99.90;;;;;;6216187;23;20160;-75
2023/04/20 03:13:16;;;;;;;7.90;3.05;;;8.40;99.90;;;;;;6217706;23;20246;-75
2023/04/20 03:15:44;;;;;;;7.35;3.70;;;8.40;99.90;;;;;;6217448;23;20208;-76
2023/04/20 03:18:11;;;;;;;7.80;3.17;;;8.40;99.90;;;;;;6216456;23;20594;-76
2023/04/20 03:20:39;;;;;;;7.55;3.35;;;8.40;99.90;;;;;;6218708;23;20160;-74
2023/04/20 03:23:09;;;;;;;6.20;3.53;;;8.40;99.90;;;;;;6217075;23;20207;-77
2023/04/20 03:25:36;;;;;;;8.35;3.80;;;8.30;99.90;;;;;;6216384;23;20281;-75
2023/04/20 03:28:02;;;;;;;7.53;3.95;;;8.40;99.90;;;;;;6216870;23;20251;-74
2023/04/20 03:30:29;;;;;;;6.57;3.78;;;8.40;99.90;;;;;;6218092;23;20650;-76
2023/04/20 03:32:56;;;;;;;8.20;3.10;;;8.40;99.90;;;;;;6216580;23;20160;-76
2023/04/20 03:35:23;;;;;;;7.63;4.00;;;8.50;99.90;;;;;;6216604;23;20231;-76
2023/04/20 03:37:50;;;;;;;4.80;3.50;;;8.50;99.90;;;;;;6216747;23;20180;-77
2023/04/20 03:40:19;;;;;;;4.15;3.33;;;8.50;99.90;;;;;;6215726;23;20545;-75
2023/04/20 03:42:46;;;;;;;8.80;3.15;;;8.50;99.90;;;;;;6217463;23;20166;-75
2023/04/20 03:45:13;;;;;;;6.53;3.72;;;8.50;99.90;;;;;;6216632;23;20299;-75
2023/04/20 03:47:40;;;;;;;6.00;3.72;;;8.50;99.90;;;;;;6218226;23;20201;-73
2023/04/20 03:50:07;;;;;;;4.43;3.30;;;8.50;99.90;;;;;;6220383;23;20160;-74
2023/04/20 03:52:35;;;;;;;10.23;3.80;;;8.50;99.90;;;;;;6223251;23;20170;-75
2023/04/20 03:55:02;;;;;;;4.93;3.25;;;8.40;99.90;;;;;;6227662;23;20254;-74
2023/04/20 03:57:30;;;;;;;4.03;3.22;;;8.40;99.90;;;;;;6229094;23;20184;-73
2023/04/20 03:59:58;;;;;;;6.50;3.00;;;8.50;99.90;;;;;;6227823;23;20164;-76
2023/04/20 04:02:25;;;;;;;8.15;4.07;;;8.50;99.90;;;;;;6224539;23;20167;-75
2023/04/20 04:04:53;;;;;;;4.88;3.35;;;8.40;99.90;;;;;;6216797;23;20207;-75
2023/04/20 04:07:20;;;;;;;5.30;3.15;;;8.40;99.90;;;;;;6216377;23;20214;-75
2023/04/20 04:09:47;;;;;;;6.97;3.78;;;8.40;99.90;;;;;;6215368;23;20200;-75
2023/04/20 04:12:14;;;;;;;6.75;3.75;;;8.40;99.90;;;;;;6215696;23;20198;-75
2023/04/20 04:14:42;;;;;;;8.98;4.38;;;8.30;99.90;;;;;;6215514;23;20209;-75
2023/04/20 04:17:09;;;;;;;8.02;3.80;;;8.30;99.90;;;;;;6216130;23;20205;-74
2023/04/20 04:19:36;;;;;;;11.90;4.18;;;8.20;99.90;;;;;;6215225;23;20167;-73
2023/04/20 04:22:04;;;;;;;8.90;4.70;;;8.10;99.90;;;;;;6215602;23;20242;-73
2023/04/20 04:24:32;;;;;;;8.25;4.93;;;8.00;99.90;;;;;;6216188;23;20203;-73
2023/04/20 04:27:04;;;;;;;7.78;4.38;;;7.90;99.90;;;;;;6215482;23;20163;-72
2023/04/20 04:29:34;;;;;;;8.18;4.10;;;7.90;99.90;;;;;;6215872;23;20167;-73
2023/04/20 04:32:04;;;;;;;10.77;3.88;;;7.90;99.90;;;;;;6215705;23;20249;-73
2023/04/20 04:34:32;;;;;;;9.90;4.72;;;7.90;99.90;;;;;;6215461;23;20202;-71
2023/04/20 04:37:01;;;;;;;7.35;4.30;;;7.90;99.90;;;;;;6216077;23;20266;-72
2023/04/20 04:39:28;;;;;;;6.30;3.97;;;7.90;99.90;;;;;;6216244;23;20495;-73
2023/04/20 04:41:56;;;;;;;9.38;3.55;;;8.00;99.90;;;;;;6215627;23;20696;-73
2023/04/20 04:44:24;;;;;;;8.07;4.28;;;8.00;99.90;;;;;;6215661;23;20211;-72
2023/04/20 04:46:51;;;;;;;4.95;3.47;;;8.00;99.90;;;;;;6215356;23;20174;-73
2023/04/20 04:49:20;;;;;;;9.32;4.10;;;8.10;99.90;;;;;;6216221;23;20199;-73
2023/04/20 04:51:50;;;;;;;7.50;4.53;;;8.10;99.90;;;;;;6215432;23;20627;-72
2023/04/20 04:54:17;;;;;;;6.70;4.82;;;8.20;99.90;;;;;;6215766;23;20219;-72
2023/04/20 04:56:44;;;;;;;6.28;4.20;;;8.20;99.90;;;;;;6216494;23;20219;-72
2023/04/20 04:59:10;;;;;;;8.15;4.13;;;8.30;99.90;;;;;;6216804;23;20195;-72
2023/04/20 05:01:39;;;;;;;10.85;5.03;;;8.30;99.90;;;;;;6220297;23;20195;-73
2023/04/20 05:04:06;;;;;;;6.60;4.50;;;8.30;99.90;;;;;;6217054;23;20199;-74
2023/04/20 05:06:35;;;;;;;8.63;5.05;;;8.50;99.90;;;;;;6217650;23;20188;-74
2023/04/20 05:09:03;;;;;;;7.43;3.80;;;8.50;99.90;;;;;;6218383;23;20216;-75
2023/04/20 05:11:31;;;;;;;7.38;5.22;;;8.50;99.90;;;;;;6219643;23;20160;-74
2023/04/20 05:13:59;;;;;;;12.30;4.80;;;8.60;99.90;;;;;;6222875;23;20210;-73
2023/04/20 05:16:26;;;;;;;8.60;4.85;;;8.50;99.90;;;;;;6223061;23;20202;-72
2023/04/20 05:18:53;;;;;;;7.32;5.80;;;8.50;99.90;;;;;;6222167;23;20160;-72
2023/04/20 05:21:20;;;;;;;12.63;5.22;;;8.40;99.90;;;;;;6215960;23;20195;-73
2023/04/20 05:23:49;;;;;;;8.18;4.65;;;8.30;99.90;;;;;;6215408;23;20681;-74
2023/04/20 05:26:16;;;;;;;12.85;5.70;;;8.30;99.90;;;;;;6215405;23;20160;-72
2023/04/20 05:28:43;;;;;;;4.82;4.25;;;8.30;99.90;;;;;;6215343;23;20540;-74
2023/04/20 05:31:10;;;;;;;6.20;4.60;;;8.30;99.90;;;;;;6215791;23;20499;-74
2023/04/20 05:33:39;;;;;;;8.90;6.80;;;8.30;99.90;;;;;;6216802;23;20168;-74
2023/04/20 05:36:09;;;;;;;6.13;4.95;;;8.30;99.90;;;;;;6215500;23;20163;-74
2023/04/20 05:38:37;;;;;;;8.57;4.55;;;8.30;99.90;;;;;;6215559;23;20184;-73
2023/04/20 05:41:05;;;;;;;5.20;3.45;;;8.30;99.90;;;;;;6214497;23;20210;-75
2023/04/20 05:43:33;;;;;;;7.50;4.22;;;8.30;99.90;;;;;;6214739;23;20160;-73
2023/04/20 05:46:00;;;;;;;12.13;5.18;;;8.40;99.90;;;;;;6215126;23;20171;-74
2023/04/20 05:48:27;;;;;;;8.90;4.68;;;8.40;99.90;;;;;;6214965;23;20167;-74
2023/04/20 05:50:55;;;;;;;8.15;5.45;;;8.40;99.90;;;;;;6214467;23;20163;-73
2023/04/20 05:53:22;;;;;;;6.82;4.47;;;8.50;99.90;;;;;;6215167;23;20498;-76
2023/04/20 05:55:49;;;;;;;6.68;4.68;;;8.60;99.90;;;;;;6214657;23;20270;-72
2023/04/20 05:58:17;;;;;;;8.63;4.40;;;8.70;99.90;;;;;;6215258;23;20554;-73
2023/04/20 06:00:44;;;;;;;7.05;4.30;;;8.70;99.90;;;;;;6213731;23;20167;-70
2023/04/20 06:03:11;;;;;;;7.28;4.95;;;8.70;99.90;;;;;;6215506;23;20190;-73
2023/04/20 06:05:38;;;;;;;9.20;3.60;;;8.70;99.90;;;;;;6215715;23;20227;-72
2023/04/20 06:08:05;;;;;;;8.68;5.55;;;8.80;99.90;;;;;;6215106;23;20162;-71
2023/04/20 06:10:33;;;;;;;8.07;4.90;;;8.80;99.90;;;;;;6214378;23;20244;-73
2023/04/20 06:12:59;;;;;;;8.45;4.93;;;8.90;99.90;;;;;;6214618;23;20496;-74
2023/04/20 06:15:28;;;;;;;11.18;6.28;;;8.90;99.90;;;;;;6215010;23;20582;-75
2023/04/20 06:17:55;;;;;;;6.63;4.63;;;8.80;99.90;;;;;;6213981;23;20267;-74
2023/04/20 06:20:22;;;;;;;7.47;4.90;;;8.90;99.90;;;;;;6214134;23;20168;-70
2023/04/20 06:22:49;;;;;;;9.15;4.78;;;8.90;99.90;;;;;;6213843;23;20207;-71
2023/04/20 06:25:16;;;;;;;7.70;5.32;;;8.90;99.90;;;;;;6214499;23;20196;-71
2023/04/20 06:27:43;;;;;;;15.23;5.22;;;9.10;99.90;;;;;;6214726;23;20168;-69
2023/04/20 06:30:12;;;;;;;8.40;4.50;;;9.10;99.90;;;;;;6214936;23;20222;-71
2023/04/20 06:33:18;;;;;;;9.15;6.47;;;9.20;99.90;;;;;;6189137;23;20271;-71
2023/04/20 06:35:46;;;;;;;9.85;5.10;;;9.20;99.90;;;;;;6215574;23;20582;-71
2023/04/20 06:38:13;;;;;;;15.02;6.35;;;9.30;99.90;;;;;;6215205;23;20230;-71
2023/04/20 06:40:40;;;;;;;8.50;4.78;;;9.30;99.90;;;;;;6215054;23;20238;-70
2023/04/20 06:43:19;;;;;;;9.93;5.63;;;9.20;99.90;;;;;;6215581;23;20160;-71
2023/04/20 06:45:46;;;;;;;9.20;5.22;;;9.20;99.90;;;;;;6216888;23;20240;-71
2023/04/20 06:48:14;;;;;;;7.22;5.05;;;9.20;99.90;;;;;;6217450;23;20163;-71
2023/04/20 06:50:41;;;;;;;13.82;5.65;;;9.10;99.90;;;;;;6216503;23;20195;-71
2023/04/20 06:53:10;;;;;;;7.18;4.97;;;9.00;99.90;;;;;;6216979;23;20499;-71
2023/04/20 06:55:36;;;;;;;9.65;5.18;;;9.10;99.90;;;;;;6216602;23;20210;-71
2023/04/20 06:58:04;;;;;;;11.85;5.75;;;9.10;99.90;;;;;;6216803;23;20271;-70
2023/04/20 07:00:31;;;;;;;8.05;5.32;;;9.40;99.90;;;;;;6215777;23;20164;-72
2023/04/20 07:02:58;;;;;;;9.48;5.88;;;9.60;99.90;;;;;;6216932;23;20166;-71
2023/04/20 07:05:27;;;;;;;7.70;5.43;;;9.80;99.90;;;;;;6216975;23;20195;-72
2023/04/20 07:07:54;;;;;;;8.13;6.03;;;10.00;99.90;;;;;;6216431;23;20207;-71
2023/04/20 07:10:23;;;;;;;7.57;4.95;;;10.20;99.90;;;;;;6216159;23;20461;-69
2023/04/20 07:12:50;;;;;;;10.10;7.15;;;10.20;99.90;;;;;;6216832;23;20168;-72
2023/04/20 07:15:17;;;;;;;13.38;6.28;;;10.00;99.90;;;;;;6216803;23;20210;-71
2023/04/20 07:17:44;;;;;;;7.10;5.88;;;10.10;99.90;;;;;;6216681;23;20191;-70
2023/04/20 07:20:12;;;;;;;12.98;6.25;;;10.00;99.90;;;;;;6220427;23;20247;-72
2023/04/20 07:22:39;;;;;;;8.68;6.30;;;9.90;99.90;;;;;;6216935;23;20239;-71
2023/04/20 07:25:07;;;;;;;6.57;5.78;;;9.90;99.90;;;;;;6216882;23;20232;-71
2023/04/20 07:27:36;;;;;;;9.35;7.10;;;9.80;99.90;;;;;;6217140;23;20198;-70
2023/04/20 07:30:05;;;;;;;14.30;8.23;;;9.80;99.90;;;;;;6215550;23;20591;-73
2023/04/20 07:32:32;;;;;;;11.80;6.93;;;9.80;99.90;;;;;;6216355;23;20164;-72
2023/04/20 07:34:59;;;;;;;8.55;5.57;;;9.90;99.90;;;;;;6216545;23;20279;-71
2023/04/20 07:37:26;;;;;;;11.82;5.97;;;10.00;99.90;;;;;;6216794;23;20257;-71
2023/04/20 07:39:53;;;;;;;10.18;6.10;;;10.00;99.90;;;;;;6215508;23;20581;-72
2023/04/20 07:42:20;;;;;;;12.75;6.60;;;9.90;99.90;;;;;;6215926;23;20203;-72
2023/04/20 07:44:49;;;;;;;9.95;6.47;;;9.80;99.90;;;;;;6216476;23;20199;-73
2023/04/20 07:47:16;;;;;;;13.38;6.95;;;9.70;99.90;;;;;;6215626;23;20260;-71
2023/04/20 07:49:43;;;;;;;7.90;6.15;;;9.70;99.90;;;;;;6215462;23;20244;-72
2023/04/20 07:52:11;;;;;;;10.05;6.03;;;9.80;99.90;;;;;;6215526;23;20238;-71
2023/04/20 07:54:39;;;;;;;7.47;5.20;;;9.90;99.90;;;;;;6215929;23;20274;-72
2023/04/20 07:57:06;;;;;;;9.75;6.43;;;9.70;99.90;;;;;;6215804;23;20170;-72
2023/04/20 07:59:33;;;;;;;12.30;6.30;;;9.60;99.90;;;;;;6215448;23;20182;-72
2023/04/20 08:02:03;;;;;;;14.30;6.60;;;9.50;99.90;;;;;;6215974;23;20163;-74
2023/04/20 08:04:30;;;;;;;10.27;7.18;;;9.40;99.90;;;;;;6215194;23;20203;-73
2023/04/20 08:06:57;;;;;;;8.52;6.45;;;9.30;99.90;;;;;;6216199;23;20164;-71
2023/04/20 08:09:24;;;;;;;11.68;6.45;;;9.20;99.90;;;;;;6215729;23;20543;-72
2023/04/20 08:11:51;;;;;;;11.65;5.97;;;9.30;99.90;;;;;;6215245;23;20222;-71
2023/04/20 08:14:18;;;;;;;11.18;7.85;;;9.30;99.90;;;;;;6215558;23;20258;-74
2023/04/20 08:16:45;;;;;;;11.73;6.38;;;9.40;99.90;;;;;;6218504;23;20238;-72
2023/04/20 08:19:13;;;;;;;9.40;6.60;;;9.50;99.90;;;;;;6215462;23;20313;-73
2023/04/20 08:21:41;;;;;;;10.80;6.30;;;9.50;99.90;;;;;;6215748;23;20219;-72
2023/04/20 08:24:09;;;;;;;10.43;6.40;;;9.50;99.90;;;;;;6217018;23;20227;-72
2023/04/20 08:26:36;;;;;;;13.57;7.25;;;9.40;99.90;;;;;;6215951;23;20168;-72
2023/04/20 08:29:04;;;;;;;9.70;6.43;;;9.40;99.90;;;;;;6215442;23;20160;-72
2023/04/20 08:31:32;;;;;;;13.35;7.70;;;9.40;99.90;;;;;;6214942;23;20166;-73
2023/04/20 08:33:58;;;;;;;8.02;6.40;;;9.30;99.90;;;;;;6215964;23;20203;-73
2023/04/20 08:36:27;;;;;;;10.27;6.70;;;9.40;99.90;;;;;;6218114;23;20250;-71
2023/04/20 08:38:57;;;;;;;14.95;8.00;;;9.40;99.90;;;;;;6219112;23;20179;-72
2023/04/20 08:41:25;;;;;;;13.30;5.90;;;9.40;99.90;;;;;;6218747;23;20226;-73
2023/04/20 08:43:52;;;;;;;10.13;6.57;;;9.50;99.90;;;;;;6220154;23;20159;-72
2023/04/20 08:46:19;;;;;;;8.68;6.82;;;9.70;99.90;;;;;;6225746;23;20168;-72
2023/04/20 08:48:47;;;;;;;7.97;6.80;;;9.80;99.90;;;;;;6221417;23;20195;-72
2023/04/20 08:51:16;;;;;;;11.45;7.65;;;9.70;99.90;;;;;;6216969;23;20606;-71
2023/04/20 08:53:44;;;;;;;11.70;6.60;;;9.70;99.90;;;;;;6216136;23;20167;-73
2023/04/20 08:56:11;;;;;;;9.63;6.47;;;9.80;99.90;;;;;;6215802;23;20210;-73
2023/04/20 08:58:41;;;;;;;12.50;6.53;;;9.90;99.90;;;;;;6215222;23;20654;-74
2023/04/20 09:01:09;;;;;;;12.32;6.75;;;9.90;99.90;;;;;;6214650;23;20164;-72
2023/04/20 09:03:37;;;;;;;18.02;7.90;;;9.80;99.90;;;;;;6215272;23;20246;-72
2023/04/20 09:06:05;;;;;;;9.93;7.57;;;9.80;99.90;;;;;;6215512;23;20257;-72
2023/04/20 09:08:36;;;;;;;12.80;7.40;;;9.70;99.90;;;;;;6214978;23;20196;-73
2023/04/20 09:11:04;;;;;;;14.73;8.40;;;9.70;99.90;;;;;;6215130;23;20560;-73
2023/04/20 09:13:32;;;;;;;11.35;7.20;;;9.70;99.90;;;;;;6215186;23;20164;-74
2023/04/20 09:16:09;;;;;;;11.02;6.45;;;9.70;99.90;;;;;;6214478;23;20211;-73
2023/04/20 09:18:37;;;;;;;7.43;6.68;;;10.00;99.90;;;;;;6188942;23;20713;-73
2023/04/20 09:21:08;;;;;;;8.65;6.72;;;10.00;99.90;;;;;;6214252;23;20164;-74
2023/04/20 09:23:35;;;;;;;8.88;6.35;;;10.20;99.90;;;;;;6214545;23;20167;-73
2023/04/20 09:26:03;;;;;;;9.50;7.18;;;10.10;99.90;;;;;;6215431;23;20246;-73
2023/04/20 09:28:37;;;;;;;10.07;7.05;;;10.20;99.90;;;;;;6215390;23;20156;-73
2023/04/20 09:31:04;;;;;;;11.55;6.85;;;10.10;99.90;;;;;;6187697;23;20186;-72
2023/04/20 09:33:34;;;;;;;9.82;6.85;;;10.20;99.90;;;;;;6214684;23;20163;-72
2023/04/20 09:36:05;;;;;;;15.07;8.13;;;10.10;99.90;;;;;;6215204;23;20160;-72
2023/04/20 09:38:33;;;;;;;12.25;6.40;;;10.00;99.90;;;;;;6215115;23;20176;-74
2023/04/20 09:41:01;;;;;;;11.00;7.47;;;10.00;99.90;;;;;;6214335;23;20164;-73
2023/04/20 09:43:30;;;;;;;13.95;8.07;;;9.90;99.90;;;;;;6214909;23;20175;-72
2023/04/20 09:45:58;;;;;;;11.48;7.60;;;10.00;99.90;;;;;;6215171;23;20203;-73
2023/04/20 09:48:25;;;;;;;13.60;6.97;;;10.10;99.90;;;;;;6214803;23;20608;-73
2023/04/20 09:50:52;;;;;;;10.30;6.65;;;10.00;99.90;;;;;;6214745;23;20195;-73
2023/04/20 09:53:19;;;;;;;8.10;6.80;;;9.90;99.90;;;;;;6214871;23;20202;-73
2023/04/20 09:55:48;;;;;;;9.77;6.60;;;9.90;99.90;;;;;;6215390;23;20202;-74
2023/04/20 09:58:17;;;;;;;10.55;6.78;;;9.90;99.90;;;;;;6215418;23;20506;-72
2023/04/20 10:00:45;;;;;;;10.55;6.90;;;9.90;99.90;;;;;;6214305;23;20603;-73
2023/04/20 10:03:15;;;;;;;10.23;7.57;;;10.20;99.90;;;;;;6215032;23;20608;-74
2023/04/20 10:05:42;;;;;;;7.97;5.95;;;10.80;99.90;;;;;;6215644;23;20277;-73
2023/04/20 10:08:10;;;;;;;9.77;6.43;;;11.70;99.90;;;;;;6214931;23;20163;-74
2023/04/20 10:10:48;;;;;;;10.93;6.15;;;12.70;99.90;;;;;;6214511;23;20163;-73
2023/04/20 10:13:18;;;;;;;7.43;6.60;;;13.50;99.90;;;;;;6215378;23;20196;-74
2023/04/20 10:15:46;;;;;;;7.03;5.80;;;14.10;99.90;;;;;;6215148;23;20208;-73
2023/04/20 10:18:22;;;;;;;6.07;5.45;;;14.80;99.90;;;;;;6215040;23;20276;-73
2023/04/20 10:20:50;;;;;;;5.40;4.90;;;15.80;99.90;;;;;;6216549;23;20170;-73
2023/04/20 10:23:18;;;;;;;8.70;6.40;;;16.40;98.40;;;;;;6216533;23;20243;-74
2023/04/20 10:25:56;;;;;;;7.90;5.82;;;16.90;96.30;;;;;;6216547;23;20964;-73
2023/04/20 10:28:23;;;;;;;9.45;7.18;;;15.90;96.20;;;;;;6190005;23;20160;-73
2023/04/20 10:30:53;;;;;;;9.95;6.10;;;15.50;97.30;;;;;;6215753;23;20256;-71
2023/04/20 10:33:21;;;;;;;8.75;6.45;;;15.10;98.00;;;;;;6216543;23;20234;-73
2023/04/20 10:35:50;;;;;;;9.65;6.55;;;15.00;98.50;;;;;;6216618;23;20203;-73
2023/04/20 10:38:28;;;;;;;10.85;6.63;;;14.50;99.40;;;;;;6216126;23;20263;-73
2023/04/20 10:40:55;;;;;;;7.38;6.53;;;14.30;99.90;;;;;;6189971;23;20170;-73
2023/04/20 10:43:23;;;;;;;9.68;5.70;;;14.10;99.90;;;;;;6215984;23;20247;-73
2023/04/20 10:45:52;;;;;;;7.40;6.63;;;13.90;99.90;;;;;;6216557;23;20235;-73
2023/04/20 10:48:19;;;;;;;8.27;7.13;;;13.70;99.90;;;;;;6216948;23;20218;-73
2023/04/20 10:50:46;;;;;;;9.88;7.22;;;13.60;99.90;;;;;;6215309;23;20172;-73
2023/04/20 10:53:20;;;;;;;11.70;8.45;;;13.60;99.90;;;;;;6216497;23;20202;-73
2023/04/20 10:55:50;;;;;;;11.02;7.20;;;13.40;99.90;;;;;;6216429;23;20535;-71
2023/04/20 10:58:23;;;;;;;13.77;7.80;;;13.40;99.90;;;;;;6216151;23;20626;-74
2023/04/20 11:01:02;;;;;;;13.23;7.22;;;13.60;99.90;;;;;;6215686;23;20168;-74
2023/04/20 11:03:30;;;;;;;11.13;7.75;;;13.50;99.90;;;;;;6216747;23;20217;-73
2023/04/20 11:06:00;;;;;;;10.05;6.63;;;13.90;99.90;;;;;;6216038;23;20317;-72
2023/04/20 11:08:37;;;;;;;8.15;6.55;;;14.30;99.90;;;;;;6216457;23;20160;-72
2023/04/20 11:11:04;;;;;;;9.55;7.20;;;14.40;99.90;;;;;;6214915;23;20171;-74
2023/04/20 11:13:32;;;;;;;9.05;7.35;;;14.40;99.90;;;;;;6217513;23;20218;-73
2023/04/20 11:15:59;;;;;;;10.68;6.75;;;14.60;99.70;;;;;;6218073;23;20557;-73
2023/04/20 11:18:29;;;;;;;10.68;7.32;;;14.20;99.20;;;;;;6215865;23;20735;-73
2023/04/20 11:20:56;;;;;;;10.98;8.15;;;13.90;99.70;;;;;;6216372;23;20241;-72
2023/04/20 11:23:26;;;;;;;10.25;7.35;;;13.50;99.90;;;;;;6216252;23;20160;-72
2023/04/20 11:25:54;;;;;;;11.77;7.85;;;13.40;99.90;;;;;;6218357;23;20219;-74
2023/04/20 11:28:21;;;;;;;12.07;7.65;;;13.30;99.90;;;;;;6217629;23;20163;-74
2023/04/20 11:30:49;;;;;;;8.75;6.80;;;13.20;99.90;;;;;;6218279;23;20171;-73
2023/04/20 11:33:27;;;;;;;11.27;7.43;;;13.50;99.90;;;;;;6221506;23;20353;-72
2023/04/20 11:35:56;;;;;;;11.73;7.43;;;13.40;99.90;;;;;;6220576;23;20234;-73
2023/04/20 11:38:31;;;;;;;9.50;7.53;;;13.30;99.90;;;;;;6222160;23;20175;-73
2023/04/20 11:41:03;;;;;;;10.15;7.22;;;13.10;99.90;;;;;;6219941;23;20285;-73
2023/04/20 11:43:31;;;;;;;10.05;7.60;;;13.30;99.90;;;;;;6215591;23;20242;-74
2023/04/20 11:45:58;;;;;;;9.68;7.75;;;13.60;99.90;;;;;;6215598;23;20206;-74
2023/04/20 11:48:30;;;;;;;13.55;8.02;;;13.50;99.90;;;;;;6215293;23;20599;-73
2023/04/20 11:50:58;;;;;;;8.95;6.57;;;13.40;99.50;;;;;;6215666;23;20191;-72
2023/04/20 11:53:25;;;;;;;7.90;6.95;;;13.50;99.90;;;;;;6215555;23;20659;-73
2023/04/20 11:55:52;;;;;;;10.32;7.97;;;13.60;99.60;;;;;;6215516;23;20278;-74
2023/04/20 11:58:19;;;;;;;10.52;7.35;;;13.60;99.30;;;;;;6215854;23;20194;-73
2023/04/20 12:00:46;;;;;;;9.38;7.10;;;13.60;99.90;;;;;;6215246;23;20163;-74
2023/04/20 12:03:13;;;;;;;12.13;7.20;;;13.80;99.90;;;;;;6216066;23;20218;-73
2023/04/20 12:05:41;;;;;;;9.77;6.30;;;14.00;98.50;;;;;;6215531;23;20662;-74
2023/04/20 12:08:08;;;;;;;10.05;7.00;;;13.80;98.80;;;;;;6215356;23;20164;-75
2023/04/20 12:10:35;;;;;;;9.15;7.15;;;13.70;98.10;;;;;;6215649;23;20160;-74
2023/04/20 12:13:03;;;;;;;8.15;7.15;;;13.80;97.90;;;;;;6217639;23;20251;-74
2023/04/20 12:15:29;;;;;;;8.90;6.85;;;13.90;96.90;;;;;;6215374;23;20668;-74
2023/04/20 12:17:56;;;;;;;10.57;7.55;;;14.20;96.70;;;;;;6215615;23;20255;-75
2023/04/20 12:20:23;;;;;;;11.43;8.60;;;14.70;96.90;;;;;;6214438;23;20194;-73
2023/04/20 12:22:52;;;;;;;8.38;6.63;;;14.80;95.90;;;;;;6215543;23;20243;-73
2023/04/20 12:25:19;;;;;;;6.80;6.10;;;14.70;95.70;;;;;;6214972;23;20235;-74
2023/04/20 12:27:46;;;;;;;10.20;8.35;;;14.70;96.00;;;;;;6215882;23;20160;-74
2023/04/20 12:30:15;;;;;;;10.40;8.00;;;14.60;96.40;;;;;;6214872;23;20240;-74
2023/04/20 12:32:42;;;;;;;9.18;7.05;;;14.60;96.80;;;;;;6215513;23;20168;-73
2023/04/20 12:35:09;;;;;;;13.10;8.02;;;14.90;96.50;;;;;;6215829;23;20274;-73
2023/04/20 12:37:36;;;;;;;7.80;6.75;;;15.00;95.80;;;;;;6214726;23;20619;-73
2023/04/20 12:40:06;;;;;;;8.65;5.90;;;14.90;95.50;;;;;;6215690;23;20238;-73
2023/04/20 12:42:33;;;;;;;14.57;6.50;;;14.80;94.00;;;;;;6214846;23;20160;-73
2023/04/20 12:45:00;;;;;;;7.57;6.20;;;14.50;94.10;;;;;;6215170;23;20589;-73
2023/04/20 12:47:27;;;;;;;8.93;7.45;;;14.60;94.10;;;;;;6215667;23;20164;-72
2023/04/20 12:49:54;;;;;;;8.00;6.70;;;14.90;94.10;;;;;;6214054;23;20239;-73
2023/04/20 12:52:21;;;;;;;8.68;6.80;;;14.90;94.00;;;;;;6215329;23;20164;-73
2023/04/20 12:54:48;;;;;;;9.10;7.70;;;14.80;95.00;;;;;;6215332;23;20263;-73